Latest Weather Observations for Dunalley

IDT60901

Issued at 5:41 pm EST Wednesday 27 July 2016 (issued every 10 minutes, with the page automatically refreshed every 10 minutes)

About weather observations | Map of Hobart area stations | Latest observations for Hobart area | Other Formats
Station Details ID: 094254 Name: DUNALLEY (STROUD POINT) Lat: -42.90 Lon: 147.79 Height: 12.43 m
Data from the previous 72 hours. | See also: Recent months at Dunalley
Date/Time
EST
Temp
°C
App
Temp
°C
Dew
Point
°C
Rel
Hum
%
Delta-T
°C
Wind Press
QNH
hPa
Press
MSL
hPa
Rain since
9am
mm
Dir  Spd
km/h
Gust
km/h
Spd
kts
Gust
kts
27/05:39pm 8.4 0.0 1.6 62 2.8 NW 35 56 19 30 1001.2 1001.2 0.0
27/05:30pm 8.3 -1.3 1.2 61 2.9 WNW 41 54 22 29 1001.0 1001.0 0.0
27/05:02pm 8.6 0.7 0.8 58 3.1 WNW 32 52 17 28 1000.9 1000.9 0.0
27/05:00pm 8.6 1.0 0.8 58 3.2 WNW 30 43 16 23 1001.2 1001.2 0.0
27/04:49pm 9.0 1.8 0.5 55 3.4 WNW 28 44 15 24 1001.0 1001.0 0.0
27/04:30pm 9.1 5.1 0.6 55 3.4 NW 11 26 6 14 1001.6 1001.6 0.0
27/04:00pm 9.2 2.7 0.6 55 3.5 WNW 24 37 13 20 1001.6 1001.6 0.0
27/03:30pm 8.9 0.9 0.1 54 3.5 WNW 32 46 17 25 1001.6 1001.6 0.0
27/03:00pm 8.8 -0.2 0.0 54 3.5 WNW 37 54 20 29 1002.5 1002.5 0.0
27/02:30pm 8.9 0.3 -0.1 53 3.6 WNW 35 56 19 30 1002.5 1002.5 0.0
27/02:18pm 9.2 1.9 -0.1 52 3.7 WNW 28 59 15 32 1002.3 1002.3 0.0
27/02:00pm 8.8 1.6 0.5 56 3.4 WNW 28 43 15 23 1002.5 1002.5 0.0
27/01:55pm 8.8 1.5 0.3 55 3.4 WNW 28 43 15 23 1002.6 1002.6 0.0
27/01:30pm 8.8 3.7 0.5 56 3.3 W 17 22 9 12 1002.9 1002.9 0.0
27/01:00pm 8.8 2.1 1.5 60 3.0 WSW 26 32 14 17 1003.3 1003.3 0.0
27/12:30pm 8.6 -0.1 2.2 64 2.7 WSW 37 44 20 24 1003.2 1003.2 0.0
27/12:00pm 8.4 -1.7 1.8 63 2.7 WSW 44 52 24 28 1003.1 1003.1 0.0
27/11:30am 8.5 -1.7 1.2 60 3.0 WSW 44 54 24 29 1003.4 1003.4 0.0
27/11:00am 8.2 -1.7 1.4 62 2.8 WSW 43 54 23 29 1003.5 1003.5 0.0
27/10:30am 8.0 -2.2 1.2 62 2.8 WSW 44 52 24 28 1003.2 1003.2 0.0
27/10:00am 7.9 -1.1 -0.1 57 3.2 W 37 44 20 24 1003.4 1003.4 0.0
27/09:30am 7.5 -0.7 0.5 61 2.8 W 33 44 18 24 1003.1 1003.1 0.0
27/09:00am 7.1 -2.9 0.8 64 2.5 W 43 52 23 28 1003.1 1003.1 0.2
27/08:30am 7.0 -1.8 1.5 68 2.2 WSW 37 44 20 24 1002.6 1002.6 0.2
27/08:00am 6.6 -3.5 1.3 69 2.1 W 44 54 24 29 1001.9 1001.9 0.2
27/07:30am 6.7 -2.9 1.2 68 2.2 W 41 48 22 26 1001.4 1001.4 0.2
27/07:00am 6.5 -2.3 1.6 71 2.0 W 37 46 20 25 1000.9 1000.9 0.2
27/06:30am 6.4 -2.7 1.7 72 1.9 W 39 48 21 26 999.9 999.9 0.2
27/06:00am 6.7 -3.1 2.2 73 1.9 WSW 43 52 23 28 999.4 999.4 0.2
27/05:30am 6.6 -3.2 2.1 73 1.8 WSW 43 48 23 26 999.0 999.0 0.2
27/05:00am 6.4 -2.0 3.6 82 1.2 WSW 37 43 20 23 998.5 998.5 0.2
27/04:30am 6.3 -2.9 3.5 82 1.2 SW 41 48 22 26 997.8 997.8 0.2
27/04:00am 6.7 -1.7 3.7 81 1.3 WSW 37 44 20 24 997.2 997.2 0.2
27/03:30am 7.0 -3.0 4.3 83 1.2 WSW 46 56 25 30 996.2 996.2 0.2
27/03:00am 7.7 0.0 3.6 75 1.8 W 33 46 18 25 995.2 995.2 0.0
27/02:30am 8.3 3.8 2.1 65 2.6 WNW 15 30 8 16 994.5 994.5 0.0
27/02:00am 8.0 3.8 1.8 65 2.6 WNW 13 20 7 11 994.2 994.2 0.0
27/01:30am 8.4 3.1 2.0 64 2.7 NW 19 33 10 18 993.9 993.9 0.0
27/01:00am 7.1 4.1 0.5 63 2.6 NW 6 9 3 5 994.2 994.2 0.0
27/12:30am 7.4 3.1 1.0 64 2.6 NW 13 28 7 15 994.1 994.1 0.0
27/12:00am 5.9 2.4 1.1 71 1.9 NNE 9 13 5 7 994.4 994.4 0.0
 
Date/Time
EST
Temp
°C
App
Temp
°C
Dew
Point
°C
Rel
Hum
%
Delta-T
°C
Wind Press
QNH
hPa
Press
MSL
hPa
Rain since
9am
mm
Dir  Spd
km/h
Gust
km/h
Spd
kts
Gust
kts
26/11:30pm 5.5 1.3 1.4 75 1.6 NE 13 20 7 11 995.4 995.4 0.0
26/11:00pm 5.8 0.8 1.5 74 1.7 NNE 17 22 9 12 995.6 995.6 0.0
26/10:30pm 6.0 1.7 1.2 71 1.9 NNE 13 22 7 12 995.9 995.9 0.0
26/10:00pm 5.7 0.9 0.5 69 2.0 NNE 15 20 8 11 996.6 996.6 0.0
26/09:30pm 6.0 2.8 -0.3 64 2.4 N 6 9 3 5 997.4 997.4 0.0
26/09:00pm 5.8 1.0 0.0 66 2.2 N 15 20 8 11 997.4 997.4 0.0
26/08:30pm 5.8 1.7 -0.3 65 2.3 NNW 11 17 6 9 998.0 998.0 0.0
26/08:00pm 6.5 1.3 0.2 64 2.5 NW 17 24 9 13 998.2 998.2 0.0
26/07:30pm 6.5 1.3 0.4 65 2.4 NW 17 28 9 15 998.7 998.7 0.0
26/07:00pm 7.0 1.0 0.9 65 2.4 WNW 22 30 12 16 998.9 998.9 0.0
26/06:30pm 6.8 1.2 1.1 67 2.3 WNW 20 28 11 15 999.0 999.0 0.0
26/06:00pm 7.3 0.5 1.0 64 2.5 WNW 26 43 14 23 998.9 998.9 0.0
26/05:30pm 7.5 1.6 1.4 65 2.5 WNW 22 33 12 18 998.7 998.7 0.0
26/05:02pm 8.0 0.5 1.2 62 2.8 WNW 30 50 16 27 998.8 998.8 0.0
26/05:00pm 8.1 0.6 1.0 61 2.9 WNW 30 41 16 22 998.8 998.8 0.0
26/04:30pm 8.3 0.2 0.8 59 3.0 WNW 33 46 18 25 998.6 998.6 0.0
26/04:00pm 8.9 0.4 0.9 57 3.3 WNW 35 52 19 28 998.5 998.5 0.0
26/03:48pm 9.2 2.0 0.9 56 3.4 WNW 28 48 15 26 998.5 998.5 0.0
26/03:30pm 9.4 1.5 1.1 56 3.4 WNW 32 43 17 23 998.4 998.4 0.0
26/03:00pm 8.8 1.3 1.0 58 3.2 WNW 30 43 16 23 998.3 998.3 0.0
26/02:30pm 9.5 1.4 0.9 55 3.5 WNW 33 44 18 24 997.9 997.9 0.0
26/02:00pm 10.0 2.8 0.9 53 3.8 WNW 28 41 15 22 997.9 997.9 0.0
26/01:43pm 10.1 2.6 1.0 53 3.7 WNW 30 50 16 27 997.6 997.6 0.0
26/01:30pm 9.9 1.9 1.5 56 3.5 W 33 50 18 27 997.3 997.3 0.0
26/01:24pm 9.7 0.9 1.4 56 3.4 W 37 56 20 30 997.3 997.3 0.0
26/01:00pm 9.5 0.2 0.9 55 3.5 WNW 39 50 21 27 997.5 997.5 0.0
26/12:30pm 9.1 -0.1 1.0 57 3.3 WNW 39 54 21 29 997.5 997.5 0.0
26/12:00pm 9.4 1.6 1.6 58 3.3 WNW 32 44 17 24 997.7 997.7 0.0
26/11:31am 8.7 1.6 1.6 61 2.9 W 28 56 15 30 997.4 997.4 0.0
26/11:30am 8.7 1.7 1.8 62 2.9 W 28 43 15 23 997.5 997.5 0.0
26/11:00am 8.3 0.2 1.0 60 3.0 W 33 48 18 26 997.7 997.7 0.0
26/10:30am 7.7 -0.4 0.7 61 2.8 WNW 33 48 18 26 997.7 997.7 0.0
26/10:06am 7.5 -0.6 0.9 63 2.6 WNW 33 54 18 29 997.5 997.5 0.0
26/10:00am 7.5 -1.4 0.9 63 2.7 WNW 37 54 20 29 997.5 997.5 0.0
26/09:31am 6.7 -0.5 0.6 65 2.4 NW 28 46 15 25 996.9 996.9 0.0
26/09:30am 6.7 -0.9 0.6 65 2.4 NW 30 46 16 25 996.9 996.9 0.0
26/09:00am 6.0 -1.2 1.0 70 2.0 WNW 28 43 15 23 997.0 997.0 1.4
26/08:38am 5.9 -3.0 0.5 68 2.1 WNW 37 57 20 31 996.6 996.6 1.4
26/08:30am 5.3 -3.2 0.7 72 1.8 WNW 35 44 19 24 996.4 996.4 1.4
26/08:00am 4.6 -4.7 0.9 77 1.4 NW 39 57 21 31 995.8 995.8 1.4
26/07:30am 4.3 -2.9 1.0 79 1.3 NW 28 48 15 26 995.3 995.3 1.4
26/07:00am 4.3 -3.2 1.3 81 1.2 WNW 30 43 16 23 994.9 994.9 1.4
26/06:30am 4.7 -4.0 1.9 82 1.1 W 37 54 20 29 994.5 994.5 1.2
26/06:19am 4.7 -2.3 1.9 82 1.1 WNW 28 52 15 28 994.5 994.5 0.8
26/06:00am 4.5 -1.8 1.4 80 1.2 WNW 24 39 13 21 994.1 994.1 0.6
26/05:30am 4.5 -2.6 1.5 81 1.2 NW 28 41 15 22 993.4 993.4 0.6
26/05:00am 5.0 -2.8 1.8 80 1.3 WNW 32 43 17 23 992.7 992.7 0.4
26/04:45am 5.6 -2.9 1.2 73 1.7 WNW 35 54 19 29 992.3 992.3 0.2
26/04:30am 5.3 -2.2 1.2 75 1.6 NW 30 43 16 23 991.8 991.8 0.2
26/04:00am 5.6 -1.9 1.0 72 1.8 WNW 30 50 16 27 991.7 991.7 0.2
26/03:57am 5.5 -1.7 0.9 72 1.8 WNW 28 50 15 27 991.5 991.5 0.2
26/03:30am 5.8 -2.2 0.6 69 2.0 WNW 32 44 17 24 990.9 990.9 0.2
26/03:00am 5.3 -2.3 0.5 71 1.9 WNW 30 41 16 22 990.8 990.8 0.2
26/02:30am 5.2 -3.6 1.1 75 1.6 WNW 37 52 20 28 990.5 990.5 0.2
26/02:00am 6.0 -5.0 0.8 69 2.1 WNW 48 69 26 37 990.3 990.3 0.2
26/01:57am 6.0 -4.6 1.0 70 2.0 WNW 46 69 25 37 990.4 990.4 0.2
26/01:55am 6.1 -4.5 0.6 68 2.1 WNW 46 69 25 37 990.3 990.3 0.2
26/01:46am 5.8 -2.7 1.0 71 1.9 WNW 35 57 19 31 990.1 990.1 0.2
26/01:30am 6.0 -2.8 1.3 72 1.9 WNW 37 54 20 29 989.6 989.6 0.2
26/01:25am 6.2 -1.9 1.3 71 2.0 WNW 33 54 18 29 990.1 990.1 0.2
26/01:00am 6.2 -1.9 1.3 71 2.0 WNW 33 48 18 26 989.7 989.7 0.2
26/12:30am 6.4 -0.7 1.3 70 2.0 WNW 28 46 15 25 989.3 989.3 0.2
26/12:00am 6.9 -0.9 1.6 69 2.2 WNW 32 46 17 25 988.9 988.9 0.2
 
Date/Time
EST
Temp
°C
App
Temp
°C
Dew
Point
°C
Rel
Hum
%
Delta-T
°C
Wind Press
QNH
hPa
Press
MSL
hPa
Rain since
9am
mm
Dir  Spd
km/h
Gust
km/h
Spd
kts
Gust
kts
25/11:30pm 7.1 -1.3 1.8 69 2.2 WNW 35 50 19 27 988.4 988.4 0.2
25/11:12pm 7.7 -1.1 1.5 65 2.5 WNW 37 57 20 31 988.1 988.1 0.2
25/11:00pm 7.9 -2.0 1.7 65 2.6 WNW 43 56 23 30 987.9 987.9 0.2
25/10:51pm 8.1 -0.6 1.7 64 2.6 WNW 37 56 20 30 987.5 987.5 0.2
25/10:30pm 8.3 -0.4 2.1 65 2.6 WNW 37 54 20 29 987.1 987.1 0.2
25/10:00pm 9.4 -0.9 2.5 62 3.0 WNW 46 69 25 37 986.9 986.9 0.2
25/09:49pm 9.8 0.0 2.4 60 3.1 NW 43 69 23 37 986.7 986.7 0.2
25/09:36pm 10.0 2.7 2.6 60 3.2 NW 30 48 16 26 986.2 986.2 0.2
25/09:30pm 9.6 3.9 3.1 64 2.8 NNW 22 41 12 22 986.3 986.3 0.2
25/09:23pm 9.0 1.9 3.4 68 2.4 N 30 50 16 27 986.1 986.1 0.2
25/09:03pm 8.5 -1.0 3.8 72 2.0 N 43 61 23 33 985.9 985.9 0.2
25/09:00pm 8.6 -1.5 3.8 72 2.1 NNE 46 63 25 34 985.9 985.9 0.2
25/08:44pm 8.7 -2.9 4.1 73 2.0 NNE 54 72 29 39 986.1 986.1 0.2
25/08:39pm 8.9 -1.8 4.5 74 1.9 NNE 50 72 27 39 986.1 986.1 0.2
25/08:30pm 9.5 1.7 4.7 72 2.1 N 35 57 19 31 986.6 986.6 0.0
25/08:25pm 10.2 3.2 3.9 65 2.8 N 30 50 16 27 987.0 987.0 0.0
25/08:00pm 9.8 4.9 4.0 67 2.6 N 19 30 10 16 987.9 987.9 0.0
25/07:30pm 9.7 3.4 3.9 67 2.5 NNE 26 43 14 23 988.4 988.4 0.0
25/07:22pm 9.8 3.1 3.8 66 2.6 NNE 28 46 15 25 988.6 988.6 0.0
25/07:00pm 9.4 3.2 4.4 71 2.2 NE 26 32 14 17 989.5 989.5 0.0
25/06:30pm 9.5 2.6 4.7 72 2.1 NNE 30 39 16 21 990.0 990.0 0.0
25/06:00pm 10.0 3.5 4.8 70 2.4 N 28 39 15 21 990.2 990.2 0.0
25/05:30pm 10.1 5.2 5.3 72 2.2 N 20 28 11 15 991.3 991.3 0.0
25/05:00pm 10.1 5.8 5.1 71 2.3 N 17 20 9 11 991.8 991.8 0.0
25/04:30pm 10.1 7.7 4.3 67 2.6 WNW 6 9 3 5 992.7 992.7 0.0
25/04:00pm 12.4 9.7 3.9 56 3.9 WNW 7 11 4 6 993.2 993.2 0.0
25/03:30pm 11.7 8.1 4.9 63 3.1 WNW 13 17 7 9 993.9 993.9 0.0
25/03:00pm 11.8 7.7 4.5 61 3.3 WNW 15 26 8 14 994.2 994.2 0.0
25/02:30pm 12.4 8.3 4.1 57 3.7 WNW 15 26 8 14 994.4 994.4 0.0
25/02:00pm 12.1 7.6 4.3 59 3.6 WNW 17 24 9 13 994.9 994.9 0.0
25/01:30pm 11.9 7.5 4.9 62 3.2 W 17 20 9 11 995.3 995.3 0.0
25/01:00pm 11.1 8.8 4.8 65 2.9 NE 6 9 3 5 995.9 995.9 0.0
25/12:30pm 9.1 5.9 5.3 77 1.7 NE 11 15 6 8 996.4 996.4 0.0
25/12:00pm 9.5 6.4 5.7 77 1.7 NE 11 11 6 6 997.1 997.1 0.0
25/11:30am 8.9 6.6 4.9 76 1.8 NE 6 7 3 4 997.5 997.5 0.0
25/11:00am 8.6 6.3 4.6 76 1.8 NE 6 6 3 3 998.0 998.0 0.0
25/10:30am 8.5 6.6 4.7 77 1.7 NE 4 6 2 3 998.1 998.1 0.0
25/10:00am 8.8 6.8 4.6 75 1.9 NE 4 7 2 4 998.3 998.3 0.0
25/09:30am 7.3 5.2 4.1 80 1.4 NE 4 7 2 4 998.4 998.4 0.0
25/09:00am 7.1 5.8 3.9 80 1.4 CALM 0 2 0 1 998.4 998.4 0.0
25/08:30am 6.0 4.2 3.3 83 1.1 NE 2 4 1 2 998.7 998.7 0.0
25/08:00am 5.6 3.4 3.1 84 1.0 NE 4 6 2 3 998.7 998.7 0.0
25/07:30am 5.1 2.8 2.8 85 0.9 NE 4 6 2 3 998.7 998.7 0.0
25/07:00am 4.6 1.8 2.0 83 1.0 NE 6 9 3 5 999.0 999.0 0.0
25/06:30am 5.3 2.6 2.8 84 1.0 NE 6 7 3 4 999.0 999.0 0.0
25/06:00am 5.9 4.4 2.9 81 1.2 CALM 0 0 0 0 998.9 998.9 0.0
25/05:30am 5.9 3.9 2.5 79 1.4 NE 2 4 1 2 999.0 999.0 0.0
25/05:00am 6.5 4.6 3.1 79 1.4 NE 2 6 1 3 999.0 999.0 0.0
25/04:30am 6.5 5.0 3.1 79 1.4 CALM 0 2 0 1 999.0 999.0 0.0
25/04:00am 6.6 4.3 2.9 77 1.6 NE 4 7 2 4 999.1 999.1 0.0
25/03:30am 6.8 4.6 3.6 80 1.4 NE 4 9 2 5 999.2 999.2 0.0
25/03:00am 6.4 4.9 3.2 80 1.3 CALM 0 0 0 0 999.4 999.4 0.0
25/02:30am 5.8 4.2 2.6 80 1.3 CALM 0 4 0 2 999.7 999.7 0.0
25/02:00am 6.3 4.4 3.1 80 1.3 NE 2 4 1 2 999.9 999.9 0.0
25/01:30am 6.1 4.2 2.7 79 1.4 NE 2 6 1 3 1000.2 1000.2 0.0
25/01:00am 5.7 3.0 2.4 79 1.4 NE 6 9 3 5 1000.3 1000.3 0.0
25/12:30am 6.6 2.3 3.2 79 1.4 NNE 15 22 8 12 1000.3 1000.3 0.0
25/12:00am 6.0 3.3 2.5 78 1.4 N 6 11 3 6 1000.8 1000.8 0.0
 
Date/Time
EST
Temp
°C
App
Temp
°C
Dew
Point
°C
Rel
Hum
%
Delta-T
°C
Wind Press
QNH
hPa
Press
MSL
hPa
Rain since
9am
mm
Dir  Spd
km/h
Gust
km/h
Spd
kts
Gust
kts
24/11:30pm 5.9 3.2 2.5 79 1.4 N 6 9 3 5 1000.8 1000.8 0.0
24/11:00pm 6.1 2.9 3.1 81 1.3 N 9 17 5 9 1001.0 1001.0 0.0
24/10:30pm 6.4 1.9 2.3 75 1.7 NNW 15 19 8 10 1001.3 1001.3 0.0
24/10:00pm 6.5 2.0 2.0 73 1.8 N 15 19 8 10 1001.4 1001.4 0.0
24/09:30pm 6.8 1.9 2.1 72 1.9 NNW 17 22 9 12 1001.5 1001.5 0.0
24/09:00pm 6.8 1.9 2.1 72 1.9 NNW 17 20 9 11 1001.8 1001.8 0.0
24/08:30pm 7.0 1.8 2.3 72 1.9 NNW 19 26 10 14 1002.0 1002.0 0.0
24/08:00pm 6.6 2.4 1.9 72 1.9 WNW 13 19 7 10 1002.1 1002.1 0.0
24/07:30pm 6.7 2.9 1.6 70 2.1 WNW 11 15 6 8 1002.3 1002.3 0.0
24/07:00pm 6.9 2.8 2.2 72 1.9 WNW 13 19 7 10 1002.4 1002.4 0.0
24/06:30pm 5.7 2.4 2.7 81 1.2 WNW 9 11 5 6 1002.5 1002.5 0.0
24/06:00pm 5.9 2.8 1.2 72 1.9 WNW 7 11 4 6 1002.5 1002.5 0.0

Latest Capital City Observations: Canberra | Sydney | Melbourne | Brisbane | Adelaide | Perth | Hobart | Darwin

Other Formats:

Comma delimited format used in spreadsheet applications
http://www.bom.gov.au/fwo/IDT60901/IDT60901.94951.axf

JavaScript Object Notation format (JSON) in row-major order
http://www.bom.gov.au/fwo/IDT60901/IDT60901.94951.json